Time,TemperatureF,DewpointF,PressureIn,WindDirection,WindDirectionDegrees,WindSpeedMPH,WindSpeedGustMPH,Humidity,HourlyPrecipIn,Conditions,Clouds,dailyrainin,SoftwareType,DateUTC
2013-01-29 00:03:00,43.2,29.3,29.97,NW,315,6.3,13.0,58,0.00,,,0.00,WUHU216HW,2013-01-29 07:03:00,
2013-01-29 00:08:00,43.0,29.2,29.97,NNW,338,6.9,11.4,58,0.00,,,0.00,WUHU216HW,2013-01-29 07:08:00,
2013-01-29 00:13:00,42.8,29.0,29.97,NW,315,5.4,11.4,58,0.00,,,0.00,WUHU216HW,2013-01-29 07:13:00,
2013-01-29 00:18:00,42.8,29.4,29.97,WNW,293,7.8,11.4,59,0.00,,,0.00,WUHU216HW,2013-01-29 07:18:00,
2013-01-29 00:23:00,42.8,29.4,29.97,North,0,7.4,10.5,59,0.00,,,0.00,WUHU216HW,2013-01-29 07:23:00,
2013-01-29 00:28:00,42.8,30.2,29.98,NW,315,5.4,8.9,61,0.00,,,0.00,WUHU216HW,2013-01-29 07:28:00,
2013-01-29 00:33:00,42.1,31.1,29.98,WNW,293,10.1,10.1,65,0.00,,,0.00,WUHU216HW,2013-01-29 07:33:00,
2013-01-29 00:38:00,41.8,32.0,29.98,West,270,6.5,10.1,68,0.00,,,0.00,WUHU216HW,2013-01-29 07:38:00,
2013-01-29 00:43:00,41.4,32.4,29.99,West,270,5.1,10.1,70,0.00,,,0.00,WUHU216HW,2013-01-29 07:43:00,
2013-01-29 00:48:00,41.2,32.2,29.98,WNW,293,5.1,8.9,70,0.00,,,0.00,WUHU216HW,2013-01-29 07:48:00,
2013-01-29 00:53:00,41.2,32.2,29.98,NW,315,5.1,8.5,70,0.00,,,0.00,WUHU216HW,2013-01-29 07:53:00,
2013-01-29 00:58:00,41.0,32.7,29.99,West,270,7.6,8.9,72,0.00,,,0.00,WUHU216HW,2013-01-29 07:58:00,
2013-01-29 01:03:00,40.9,32.5,29.98,WNW,293,5.8,8.9,72,0.00,,,0.00,WUHU216HW,2013-01-29 08:03:00,
2013-01-29 01:08:00,40.7,32.7,29.98,WNW,293,6.5,8.1,73,0.00,,,0.00,WUHU216HW,2013-01-29 08:08:00,
2013-01-29 01:13:00,40.7,32.7,29.98,WNW,293,6.3,8.1,73,0.00,,,0.00,WUHU216HW,2013-01-29 08:13:00,
2013-01-29 01:18:00,40.5,32.5,29.98,West,270,4.3,8.1,73,0.00,,,0.00,WUHU216HW,2013-01-29 08:18:00,
2013-01-29 01:23:00,40.3,33.3,29.98,West,270,7.2,8.7,76,0.00,,,0.00,WUHU216HW,2013-01-29 08:23:00,
2013-01-29 01:28:00,40.3,33.7,29.98,West,270,5.8,8.7,77,0.00,,,0.00,WUHU216HW,2013-01-29 08:28:00,
2013-01-29 01:33:00,40.1,33.5,29.98,WNW,293,9.2,9.2,77,0.00,,,0.00,WUHU216HW,2013-01-29 08:33:00,
2013-01-29 01:38:00,40.0,33.7,29.98,West,270,6.5,9.8,78,0.00,,,0.00,WUHU216HW,2013-01-29 08:38:00,
2013-01-29 01:43:00,40.0,33.7,29.98,West,270,4.9,9.8,78,0.00,,,0.00,WUHU216HW,2013-01-29 08:43:00,
2013-01-29 01:48:00,39.8,33.5,29.98,WNW,293,5.4,9.2,78,0.00,,,0.00,WUHU216HW,2013-01-29 08:48:00,
2013-01-29 01:53:00,39.8,33.5,29.98,NW,315,5.1,8.3,78,0.00,,,0.00,WUHU216HW,2013-01-29 08:53:00,
2013-01-29 01:58:00,39.8,33.1,29.97,WNW,293,4.3,6.9,77,0.00,,,0.00,WUHU216HW,2013-01-29 08:58:00,
2013-01-29 02:03:00,39.8,33.5,29.97,NW,315,6.3,6.9,78,0.00,,,0.00,WUHU216HW,2013-01-29 09:03:00,
2013-01-29 02:08:00,39.6,33.3,29.97,WNW,293,5.4,6.9,78,0.00,,,0.00,WUHU216HW,2013-01-29 09:08:00,
2013-01-29 02:13:00,39.6,32.9,29.96,WNW,293,5.8,7.4,77,0.00,,,0.00,WUHU216HW,2013-01-29 09:13:00,
2013-01-29 02:18:00,39.8,33.1,29.96,NNW,338,4.0,8.5,77,0.00,,,0.00,WUHU216HW,2013-01-29 09:18:00,
2013-01-29 02:23:00,40.0,32.9,29.96,NW,315,5.1,8.5,76,0.00,,,0.00,WUHU216HW,2013-01-29 09:23:00,
2013-01-29 02:28:00,40.0,32.7,29.96,NW,315,6.7,8.7,75,0.00,,,0.00,WUHU216HW,2013-01-29 09:28:00,
2013-01-29 02:33:00,40.1,32.5,29.97,WNW,293,6.0,8.7,74,0.00,,,0.00,WUHU216HW,2013-01-29 09:33:00,
2013-01-29 02:38:00,40.1,32.1,29.97,WNW,293,4.5,8.5,73,0.00,,,0.00,WUHU216HW,2013-01-29 09:38:00,
2013-01-29 02:43:00,40.1,32.1,29.96,WNW,293,6.3,7.8,73,0.00,,,0.00,WUHU216HW,2013-01-29 09:43:00,
2013-01-29 02:48:00,40.1,31.8,29.96,NW,315,9.2,9.2,72,0.00,,,0.00,WUHU216HW,2013-01-29 09:48:00,
2013-01-29 02:53:00,40.1,31.8,29.97,NNW,338,7.6,9.2,72,0.00,,,0.00,WUHU216HW,2013-01-29 09:53:00,
2013-01-29 02:58:00,40.0,31.6,29.97,NW,315,7.8,10.5,72,0.00,,,0.00,WUHU216HW,2013-01-29 09:58:00,
2013-01-29 03:03:00,40.0,31.6,29.98,WNW,293,4.7,10.5,72,0.00,,,0.00,WUHU216HW,2013-01-29 10:03:00,
2013-01-29 03:08:00,40.0,32.0,29.98,NW,315,7.2,9.8,73,0.00,,,0.00,WUHU216HW,2013-01-29 10:08:00,
2013-01-29 03:13:00,40.0,32.0,29.98,NW,315,5.6,9.8,73,0.00,,,0.00,WUHU216HW,2013-01-29 10:13:00,
2013-01-29 03:18:00,39.8,31.8,29.99,WNW,293,6.0,9.4,73,0.00,,,0.00,WUHU216HW,2013-01-29 10:18:00,
2013-01-29 03:23:00,39.6,32.0,29.99,WNW,293,4.3,8.5,74,0.00,,,0.00,WUHU216HW,2013-01-29 10:23:00,
2013-01-29 03:28:00,39.6,32.0,29.99,NW,315,6.3,8.5,74,0.00,,,0.00,WUHU216HW,2013-01-29 10:28:00,
2013-01-29 03:33:00,39.6,32.3,30.00,NW,315,4.7,8.5,75,0.00,,,0.00,WUHU216HW,2013-01-29 10:33:00,
2013-01-29 03:38:00,39.6,32.3,29.99,NW,315,4.5,6.7,75,0.00,,,0.00,WUHU216HW,2013-01-29 10:38:00,
2013-01-29 03:43:00,39.6,32.3,29.99,NW,315,4.0,6.9,75,0.00,,,0.00,WUHU216HW,2013-01-29 10:43:00,
2013-01-29 03:48:00,39.4,32.1,29.99,NW,315,6.5,8.3,75,0.00,,,0.00,WUHU216HW,2013-01-29 10:48:00,
2013-01-29 03:53:00,39.4,32.5,29.99,WNW,293,6.3,8.3,76,0.00,,,0.00,WUHU216HW,2013-01-29 10:53:00,
2013-01-29 03:58:00,39.4,32.5,29.99,NNW,338,7.4,9.4,76,0.00,,,0.00,WUHU216HW,2013-01-29 10:58:00,
2013-01-29 04:03:00,39.4,32.8,29.99,NNW,338,3.6,10.5,77,0.00,,,0.00,WUHU216HW,2013-01-29 11:03:00,
2013-01-29 04:08:00,39.2,32.7,29.99,NW,315,7.6,10.7,77,0.00,,,0.00,WUHU216HW,2013-01-29 11:08:00,
2013-01-29 04:13:00,39.2,32.7,29.99,WNW,293,10.3,10.7,77,0.00,,,0.00,WUHU216HW,2013-01-29 11:13:00,
2013-01-29 04:18:00,39.2,32.7,29.98,WNW,293,6.7,10.3,77,0.00,,,0.00,WUHU216HW,2013-01-29 11:18:00,
2013-01-29 04:23:00,39.1,32.5,29.98,NW,315,9.2,10.3,77,0.00,,,0.00,WUHU216HW,2013-01-29 11:23:00,
2013-01-29 04:28:00,39.1,32.8,29.98,WNW,293,5.6,9.8,78,0.00,,,0.00,WUHU216HW,2013-01-29 11:28:00,
2013-01-29 04:33:00,39.1,32.8,29.98,NNW,338,4.0,9.8,78,0.00,,,0.00,WUHU216HW,2013-01-29 11:33:00,
2013-01-29 04:38:00,38.9,32.6,29.98,NW,315,4.3,8.7,78,0.00,,,0.00,WUHU216HW,2013-01-29 11:38:00,
2013-01-29 04:43:00,38.7,32.5,29.98,NW,315,6.7,9.2,78,0.00,,,0.00,WUHU216HW,2013-01-29 11:43:00,
2013-01-29 04:48:00,38.5,32.3,29.98,West,270,4.3,9.2,78,0.00,,,0.00,WUHU216HW,2013-01-29 11:48:00,
2013-01-29 04:53:00,38.3,31.8,29.98,NNW,338,5.4,8.5,77,0.00,,,0.00,WUHU216HW,2013-01-29 11:53:00,
2013-01-29 04:58:00,38.2,31.6,29.98,NW,315,4.9,9.8,77,0.00,,,0.00,WUHU216HW,2013-01-29 11:58:00,
2013-01-29 05:03:00,38.0,31.4,29.98,NW,315,5.6,9.8,77,0.00,,,0.00,WUHU216HW,2013-01-29 12:03:00,
2013-01-29 05:08:00,37.8,31.2,29.98,NNW,338,6.3,10.1,77,0.00,,,0.00,WUHU216HW,2013-01-29 12:08:00,
2013-01-29 05:13:00,37.8,31.2,29.98,NNW,338,6.3,10.1,77,0.00,,,0.00,WUHU216HW,2013-01-29 12:13:00,
2013-01-29 05:18:00,37.6,31.1,29.98,WNW,293,6.3,10.3,77,0.00,,,0.00,WUHU216HW,2013-01-29 12:18:00,
2013-01-29 05:23:00,37.4,30.9,29.98,NW,315,6.0,10.3,77,0.00,,,0.00,WUHU216HW,2013-01-29 12:23:00,
2013-01-29 05:28:00,37.4,30.9,29.99,West,270,4.9,10.1,77,0.00,,,0.00,WUHU216HW,2013-01-29 12:28:00,
2013-01-29 05:33:00,37.3,30.7,30.00,WNW,293,6.9,8.5,77,0.00,,,0.00,WUHU216HW,2013-01-29 12:33:00,
2013-01-29 05:38:00,37.3,30.7,30.00,WNW,293,6.3,9.8,77,0.00,,,0.00,WUHU216HW,2013-01-29 12:38:00,
2013-01-29 05:43:00,37.3,30.7,30.00,NW,315,8.3,9.8,77,0.00,,,0.00,WUHU216HW,2013-01-29 12:43:00,
2013-01-29 05:48:00,37.1,30.5,30.01,NNW,338,6.9,8.9,77,0.00,,,0.00,WUHU216HW,2013-01-29 12:48:00,
2013-01-29 05:53:00,37.1,30.3,30.01,NNW,338,5.8,10.1,76,0.00,,,0.00,WUHU216HW,2013-01-29 12:53:00,
2013-01-29 05:58:00,37.1,30.3,30.01,NW,315,7.8,10.1,76,0.00,,,0.00,WUHU216HW,2013-01-29 12:58:00,
2013-01-29 06:03:00,37.1,30.3,30.01,NW,315,6.7,9.8,76,0.00,,,0.00,WUHU216HW,2013-01-29 13:03:00,
2013-01-29 06:08:00,37.1,30.5,30.01,WNW,293,4.5,9.8,77,0.00,,,0.00,WUHU216HW,2013-01-29 13:08:00,
2013-01-29 06:13:00,36.9,30.3,30.01,NNW,338,6.5,9.4,77,0.00,,,0.00,WUHU216HW,2013-01-29 13:13:00,
2013-01-29 06:18:00,36.9,30.3,30.01,NW,315,4.9,9.4,77,0.00,,,0.00,WUHU216HW,2013-01-29 13:18:00,
2013-01-29 06:23:00,36.7,29.9,30.01,ENE,68,7.8,9.2,76,0.00,,,0.00,WUHU216HW,2013-01-29 13:23:00,
2013-01-29 06:28:00,36.9,29.7,30.01,West,270,10.3,12.8,75,0.00,,,0.00,WUHU216HW,2013-01-29 13:28:00,
2013-01-29 06:33:00,36.9,29.7,30.01,NNW,338,6.9,12.8,75,0.00,,,0.00,WUHU216HW,2013-01-29 13:33:00,
2013-01-29 06:38:00,36.9,29.7,30.01,NNW,338,4.7,10.3,75,0.00,,,0.00,WUHU216HW,2013-01-29 13:38:00,
2013-01-29 06:43:00,36.9,29.7,30.01,WSW,248,5.4,11.2,75,0.00,,,0.00,WUHU216HW,2013-01-29 13:43:00,
2013-01-29 06:48:00,36.7,29.5,30.01,NNW,338,8.1,11.2,75,0.00,,,0.00,WUHU216HW,2013-01-29 13:48:00,
2013-01-29 06:53:00,36.7,29.5,30.01,West,270,6.3,12.1,75,0.00,,,0.00,WUHU216HW,2013-01-29 13:53:00,
2013-01-29 06:58:00,36.7,29.5,30.01,NW,315,7.8,12.1,75,0.00,,,0.00,WUHU216HW,2013-01-29 13:58:00,
2013-01-29 07:03:00,36.7,29.5,30.01,NNW,338,7.6,9.4,75,0.00,,,0.00,WUHU216HW,2013-01-29 14:03:00,
2013-01-29 07:08:00,36.5,29.3,30.01,NW,315,4.5,9.4,75,0.00,,,0.00,WUHU216HW,2013-01-29 14:08:00,
2013-01-29 07:13:00,36.4,28.8,30.01,NW,315,6.5,9.2,74,0.00,,,0.00,WUHU216HW,2013-01-29 14:13:00,
2013-01-29 07:18:00,36.5,29.3,30.01,West,270,8.7,10.5,75,0.00,,,0.00,WUHU216HW,2013-01-29 14:18:00,
2013-01-29 07:23:00,36.5,29.3,30.01,NNW,338,8.1,11.0,75,0.00,,,0.00,WUHU216HW,2013-01-29 14:23:00,
2013-01-29 07:28:00,36.4,28.8,30.01,NNW,338,7.2,11.0,74,0.00,,,0.00,WUHU216HW,2013-01-29 14:28:00,
2013-01-29 07:33:00,36.4,28.8,30.02,NNW,338,5.4,9.8,74,0.00,,,0.00,WUHU216HW,2013-01-29 14:33:00,
2013-01-29 07:38:00,36.4,28.8,30.01,WNW,293,6.5,10.1,74,0.00,,,0.00,WUHU216HW,2013-01-29 14:38:00,
2013-01-29 07:43:00,36.4,28.8,30.02,NNW,338,6.3,10.1,74,0.00,,,0.00,WUHU216HW,2013-01-29 14:43:00,
2013-01-29 07:48:00,36.4,28.5,30.02,NNW,338,8.7,11.0,73,0.00,,,0.00,WUHU216HW,2013-01-29 14:48:00,
2013-01-29 07:53:00,36.4,28.5,30.02,WSW,248,7.6,13.4,73,0.00,,,0.00,WUHU216HW,2013-01-29 14:53:00,
2013-01-29 07:58:00,36.7,28.9,30.02,North,0,6.9,13.4,73,0.00,,,0.00,WUHU216HW,2013-01-29 14:58:00,
2013-01-29 08:03:00,36.9,28.7,30.03,WNW,293,6.9,12.1,72,0.00,,,0.00,WUHU216HW,2013-01-29 15:03:00,
2013-01-29 08:08:00,36.9,28.7,30.03,NNW,338,9.2,12.5,72,0.00,,,0.00,WUHU216HW,2013-01-29 15:08:00,
2013-01-29 08:13:00,36.9,28.5,30.04,NNW,338,9.6,12.5,71,0.00,,,0.00,WUHU216HW,2013-01-29 15:13:00,
2013-01-29 08:18:00,37.1,28.6,30.04,WNW,293,8.5,14.1,71,0.00,,,0.00,WUHU216HW,2013-01-29 15:18:00,
2013-01-29 08:23:00,37.3,28.4,30.05,NW,315,10.5,14.1,70,0.00,,,0.00,WUHU216HW,2013-01-29 15:23:00,
2013-01-29 08:28:00,37.4,28.3,30.05,NNW,338,8.9,14.3,69,0.00,,,0.00,WUHU216HW,2013-01-29 15:28:00,
2013-01-29 08:33:00,37.6,28.0,30.05,WNW,293,10.1,14.3,68,0.00,,,0.00,WUHU216HW,2013-01-29 15:33:00,
2013-01-29 08:38:00,37.8,27.8,30.05,NW,315,7.6,13.0,67,0.00,,,0.00,WUHU216HW,2013-01-29 15:38:00,
2013-01-29 08:43:00,38.0,28.0,30.05,NW,315,11.2,13.4,67,0.00,,,0.00,WUHU216HW,2013-01-29 15:43:00,
2013-01-29 08:48:00,38.0,28.0,30.05,North,0,7.6,13.4,67,0.00,,,0.00,WUHU216HW,2013-01-29 15:48:00,
2013-01-29 08:53:00,38.0,28.0,30.05,NW,315,3.1,13.4,67,0.00,,,0.00,WUHU216HW,2013-01-29 15:53:00,
2013-01-29 08:58:00,38.2,28.2,30.05,NW,315,6.5,12.8,67,0.00,,,0.00,WUHU216HW,2013-01-29 15:58:00,
2013-01-29 09:03:00,38.3,27.9,30.05,NNW,338,7.4,13.0,66,0.00,,,0.00,WUHU216HW,2013-01-29 16:03:00,
2013-01-29 09:08:00,38.5,28.4,30.05,NNW,338,6.5,13.0,67,0.00,,,0.00,WUHU216HW,2013-01-29 16:08:00,
2013-01-29 09:13:00,38.7,28.3,30.05,NW,315,7.4,12.3,66,0.00,,,0.00,WUHU216HW,2013-01-29 16:13:00,
2013-01-29 09:18:00,38.9,27.6,30.06,WSW,248,10.5,11.2,64,0.00,,,0.00,WUHU216HW,2013-01-29 16:18:00,
2013-01-29 09:23:00,38.9,28.0,30.06,NW,315,9.6,12.1,65,0.00,,,0.00,WUHU216HW,2013-01-29 16:23:00,
2013-01-29 09:28:00,38.9,27.6,30.06,NW,315,6.5,12.1,64,0.00,,,0.00,WUHU216HW,2013-01-29 16:28:00,
2013-01-29 09:33:00,39.1,27.8,30.06,West,270,7.8,11.0,64,0.00,,,0.00,WUHU216HW,2013-01-29 16:33:00,
2013-01-29 09:38:00,39.2,28.0,30.06,NNW,338,3.4,10.5,64,0.00,,,0.00,WUHU216HW,2013-01-29 16:38:00,
2013-01-29 09:43:00,39.2,28.0,30.06,NNW,338,3.4,10.5,64,0.00,,,0.00,WUHU216HW,2013-01-29 16:43:00,
2013-01-29 09:48:00,39.4,27.8,30.06,NW,315,7.8,10.7,63,0.00,,,0.00,WUHU216HW,2013-01-29 16:48:00,
2013-01-29 09:53:00,39.8,28.2,30.06,NW,315,8.5,10.7,63,0.00,,,0.00,WUHU216HW,2013-01-29 16:53:00,
2013-01-29 09:58:00,40.0,28.4,30.06,North,0,6.3,9.8,63,0.00,,,0.00,WUHU216HW,2013-01-29 16:58:00,
2013-01-29 10:03:00,40.1,28.1,30.07,NNW,338,7.4,9.4,62,0.00,,,0.00,WUHU216HW,2013-01-29 17:03:00,
2013-01-29 10:08:00,40.1,28.1,30.07,WNW,293,9.2,9.4,62,0.00,,,0.00,WUHU216HW,2013-01-29 17:08:00,
2013-01-29 10:13:00,40.5,28.4,30.07,NW,315,8.5,9.2,62,0.00,,,0.00,WUHU216HW,2013-01-29 17:13:00,
2013-01-29 10:18:00,40.7,27.5,30.07,WNW,293,10.5,10.5,59,0.00,,,0.00,WUHU216HW,2013-01-29 17:18:00,
2013-01-29 10:23:00,40.9,27.6,30.07,NW,315,8.3,10.7,59,0.00,,,0.00,WUHU216HW,2013-01-29 17:23:00,
2013-01-29 10:28:00,41.2,27.6,30.07,NW,315,5.1,10.7,58,0.00,,,0.00,WUHU216HW,2013-01-29 17:28:00,
2013-01-29 10:33:00,41.4,27.7,30.07,NW,315,5.6,10.3,58,0.00,,,0.00,WUHU216HW,2013-01-29 17:33:00,
2013-01-29 10:38:00,41.8,28.0,30.07,NW,315,7.6,8.5,58,0.00,,,0.00,WUHU216HW,2013-01-29 17:38:00,
2013-01-29 10:43:00,41.8,28.0,30.07,West,270,6.3,11.6,58,0.00,,,0.00,WUHU216HW,2013-01-29 17:43:00,
2013-01-29 10:48:00,41.9,27.3,30.07,West,270,7.4,11.6,56,0.00,,,0.00,WUHU216HW,2013-01-29 17:48:00,
2013-01-29 10:53:00,42.1,27.9,30.08,West,270,5.8,9.6,57,0.00,,,0.00,WUHU216HW,2013-01-29 17:53:00,
2013-01-29 10:58:00,42.3,27.6,30.08,NW,315,2.5,9.2,56,0.00,,,0.00,WUHU216HW,2013-01-29 17:58:00,
2013-01-29 11:03:00,42.5,27.8,30.08,WNW,293,6.7,10.3,56,0.00,,,0.00,WUHU216HW,2013-01-29 18:03:00,
2013-01-29 11:08:00,42.5,27.4,30.08,WNW,293,7.2,10.3,55,0.00,,,0.00,WUHU216HW,2013-01-29 18:08:00,
2013-01-29 11:13:00,42.8,26.8,30.08,NNW,338,5.6,10.5,53,0.00,,,0.00,WUHU216HW,2013-01-29 18:13:00,
2013-01-29 11:18:00,43.2,27.2,30.08,WSW,248,5.4,10.5,53,0.00,,,0.00,WUHU216HW,2013-01-29 18:18:00,
2013-01-29 11:23:00,43.6,27.1,30.08,WNW,293,9.6,13.2,52,0.00,,,0.00,WUHU216HW,2013-01-29 18:23:00,
2013-01-29 11:28:00,43.6,26.6,30.08,WNW,293,6.3,13.2,51,0.00,,,0.00,WUHU216HW,2013-01-29 18:28:00,
2013-01-29 11:33:00,43.9,26.6,30.08,NW,315,12.1,12.1,50,0.00,,,0.00,WUHU216HW,2013-01-29 18:33:00,
2013-01-29 11:38:00,44.1,27.2,30.08,WNW,293,8.9,12.1,51,0.00,,,0.00,WUHU216HW,2013-01-29 18:38:00,
2013-01-29 11:43:00,44.6,25.6,30.07,WNW,293,8.5,12.8,47,0.00,,,0.00,WUHU216HW,2013-01-29 18:43:00,
2013-01-29 11:48:00,44.8,25.8,30.07,WNW,293,6.3,12.8,47,0.00,,,0.00,WUHU216HW,2013-01-29 18:48:00,
2013-01-29 11:53:00,45.2,24.9,30.07,WSW,248,6.9,14.3,45,0.00,,,0.00,WUHU216HW,2013-01-29 18:53:00,
2013-01-29 11:58:00,45.2,24.9,30.07,West,270,8.9,14.3,45,0.00,,,0.00,WUHU216HW,2013-01-29 18:58:00,
2013-01-29 12:03:00,45.4,24.6,30.06,NW,315,8.1,13.4,44,0.00,,,0.00,WUHU216HW,2013-01-29 19:03:00,
2013-01-29 12:08:00,45.4,24.6,30.06,WNW,293,8.3,14.1,44,0.00,,,0.00,WUHU216HW,2013-01-29 19:08:00,
2013-01-29 12:13:00,45.7,24.4,30.06,WNW,293,10.3,14.1,43,0.00,,,0.00,WUHU216HW,2013-01-29 19:13:00,
2013-01-29 12:18:00,45.7,24.9,30.06,WNW,293,5.6,12.3,44,0.00,,,0.00,WUHU216HW,2013-01-29 19:18:00,
2013-01-29 12:23:00,45.9,24.0,30.06,WNW,293,8.7,12.5,42,0.00,,,0.00,WUHU216HW,2013-01-29 19:23:00,
2013-01-29 12:28:00,46.1,24.1,30.05,West,270,9.6,17.0,42,0.00,,,0.00,WUHU216HW,2013-01-29 19:28:00,
2013-01-29 12:33:00,46.4,24.5,30.05,West,270,7.6,17.0,42,0.00,,,0.00,WUHU216HW,2013-01-29 19:33:00,
2013-01-29 12:38:00,46.6,22.2,30.05,NNW,338,13.4,17.2,38,0.00,,,0.00,WUHU216HW,2013-01-29 19:38:00,
2013-01-29 12:43:00,46.8,22.4,30.05,WSW,248,12.1,17.2,38,0.00,,,0.00,WUHU216HW,2013-01-29 19:43:00,
2013-01-29 12:48:00,46.8,21.7,30.05,NW,315,11.4,15.2,37,0.00,,,0.00,WUHU216HW,2013-01-29 19:48:00,
2013-01-29 12:53:00,46.8,21.7,30.05,NNW,338,10.1,15.9,37,0.00,,,0.00,WUHU216HW,2013-01-29 19:53:00,
2013-01-29 12:57:00,47.0,22.6,30.05,West,270,11.4,15.9,38,0.00,,,0.00,WUHU216HW,2013-01-29 19:57:00,
2013-01-29 13:02:00,47.2,22.7,30.05,WNW,293,9.2,15.7,38,0.00,,,0.00,WUHU216HW,2013-01-29 20:02:00,
2013-01-29 13:07:00,47.7,23.2,30.04,West,270,6.7,14.3,38,0.00,,,0.00,WUHU216HW,2013-01-29 20:07:00,
2013-01-29 13:12:00,47.7,21.9,30.05,WNW,293,12.8,15.0,36,0.00,,,0.00,WUHU216HW,2013-01-29 20:12:00,
2013-01-29 13:17:00,47.5,22.4,30.04,WNW,293,11.2,16.8,37,0.00,,,0.00,WUHU216HW,2013-01-29 20:17:00,
2013-01-29 13:22:00,47.7,22.5,30.04,WSW,248,7.6,16.8,37,0.00,,,0.00,WUHU216HW,2013-01-29 20:22:00,
2013-01-29 13:27:00,48.1,22.9,30.04,West,270,10.5,13.4,37,0.00,,,0.00,WUHU216HW,2013-01-29 20:27:00,
2013-01-29 13:32:00,48.1,22.9,30.04,West,270,9.4,13.4,37,0.00,,,0.00,WUHU216HW,2013-01-29 20:32:00,
2013-01-29 13:37:00,48.4,22.5,30.04,NW,315,15.9,16.3,36,0.00,,,0.00,WUHU216HW,2013-01-29 20:37:00,
2013-01-29 13:42:00,48.1,22.2,30.04,NW,315,6.3,16.3,36,0.00,,,0.00,WUHU216HW,2013-01-29 20:42:00,
2013-01-29 13:47:00,48.4,22.5,30.04,WNW,293,15.0,17.2,36,0.00,,,0.00,WUHU216HW,2013-01-29 20:47:00,
2013-01-29 13:52:00,48.2,23.1,30.04,NW,315,9.2,17.2,37,0.00,,,0.00,WUHU216HW,2013-01-29 20:52:00,
2013-01-29 13:57:00,48.2,23.1,30.03,NW,315,11.6,15.0,37,0.00,,,0.00,WUHU216HW,2013-01-29 20:57:00,
2013-01-29 14:02:00,48.2,23.7,30.04,WNW,293,7.2,14.3,38,0.00,,,0.00,WUHU216HW,2013-01-29 21:02:00,
2013-01-29 14:07:00,48.6,24.0,30.04,WNW,293,9.8,20.8,38,0.00,,,0.00,WUHU216HW,2013-01-29 21:07:00,
2013-01-29 14:12:00,48.6,24.0,30.03,NNW,338,8.3,20.8,38,0.00,,,0.00,WUHU216HW,2013-01-29 21:12:00,
2013-01-29 14:17:00,49.0,23.7,30.03,NW,315,8.5,11.6,37,0.00,,,0.00,WUHU216HW,2013-01-29 21:17:00,
2013-01-29 14:22:00,49.0,23.7,30.03,WNW,293,6.3,14.8,37,0.00,,,0.00,WUHU216HW,2013-01-29 21:22:00,
2013-01-29 14:27:00,49.0,23.7,30.03,NW,315,6.9,14.8,37,0.00,,,0.00,WUHU216HW,2013-01-29 21:27:00,
2013-01-29 14:32:00,49.3,23.3,30.03,WNW,293,8.9,15.0,36,0.00,,,0.00,WUHU216HW,2013-01-29 21:32:00,
2013-01-29 14:37:00,49.1,23.1,30.03,North,0,6.3,15.0,36,0.00,,,0.00,WUHU216HW,2013-01-29 21:37:00,
2013-01-29 14:42:00,48.4,22.5,30.02,NW,315,12.3,14.1,36,0.00,,,0.00,WUHU216HW,2013-01-29 21:42:00,
2013-01-29 14:47:00,48.4,22.5,30.02,WNW,293,13.0,14.1,36,0.00,,,0.00,WUHU216HW,2013-01-29 21:47:00,
2013-01-29 14:52:00,48.8,21.5,30.02,West,270,4.9,13.9,34,0.00,,,0.00,WUHU216HW,2013-01-29 21:52:00,
2013-01-29 14:57:00,49.0,22.3,30.02,WNW,293,7.6,13.9,35,0.00,,,0.00,WUHU216HW,2013-01-29 21:57:00,
2013-01-29 15:02:00,49.3,22.6,30.02,WSW,248,8.9,17.2,35,0.00,,,0.00,WUHU216HW,2013-01-29 22:02:00,
2013-01-29 15:07:00,49.5,22.8,30.02,SW,225,11.4,17.2,35,0.00,,,0.00,WUHU216HW,2013-01-29 22:07:00,
2013-01-29 15:12:00,49.5,22.8,30.02,WNW,293,16.1,16.1,35,0.00,,,0.00,WUHU216HW,2013-01-29 22:12:00,
2013-01-29 15:17:00,49.5,22.1,30.03,WSW,248,10.3,16.1,34,0.00,,,0.00,WUHU216HW,2013-01-29 22:17:00,
2013-01-29 15:22:00,49.3,22.6,30.02,WNW,293,9.2,16.1,35,0.00,,,0.00,WUHU216HW,2013-01-29 22:22:00,
2013-01-29 15:27:00,49.3,22.0,30.02,SW,225,9.8,14.8,34,0.00,,,0.00,WUHU216HW,2013-01-29 22:27:00,
2013-01-29 15:32:00,49.3,22.6,30.03,NW,315,8.1,14.3,35,0.00,,,0.00,WUHU216HW,2013-01-29 22:32:00,
2013-01-29 15:37:00,49.7,23.6,30.03,WNW,293,7.4,14.3,36,0.00,,,0.00,WUHU216HW,2013-01-29 22:37:00,
2013-01-29 15:42:00,50.0,24.0,30.02,WNW,293,8.3,15.4,36,0.00,,,0.00,WUHU216HW,2013-01-29 22:42:00,
2013-01-29 15:47:00,50.0,22.5,30.02,NW,315,9.8,15.4,34,0.00,,,0.00,WUHU216HW,2013-01-29 22:47:00,
2013-01-29 15:52:00,49.9,23.8,30.03,NW,315,10.7,11.4,36,0.00,,,0.00,WUHU216HW,2013-01-29 22:52:00,
2013-01-29 15:57:00,50.0,22.5,30.03,NW,315,9.8,13.0,34,0.00,,,0.00,WUHU216HW,2013-01-29 22:57:00,
2013-01-29 16:02:00,50.0,21.2,30.03,WNW,293,11.0,16.8,32,0.00,,,0.00,WUHU216HW,2013-01-29 23:02:00,
2013-01-29 16:07:00,50.0,20.5,30.03,West,270,15.7,16.8,31,0.00,,,0.00,WUHU216HW,2013-01-29 23:07:00,
2013-01-29 16:12:00,50.0,21.2,30.03,West,270,6.3,15.7,32,0.00,,,0.00,WUHU216HW,2013-01-29 23:12:00,
2013-01-29 16:17:00,50.0,21.2,30.03,NW,315,7.6,16.6,32,0.00,,,0.00,WUHU216HW,2013-01-29 23:17:00,
2013-01-29 16:22:00,49.9,21.1,30.03,NW,315,10.3,16.6,32,0.00,,,0.00,WUHU216HW,2013-01-29 23:22:00,
2013-01-29 16:27:00,50.0,21.2,30.03,West,270,8.5,15.2,32,0.00,,,0.00,WUHU216HW,2013-01-29 23:27:00,
2013-01-29 16:32:00,50.0,20.5,30.04,WSW,248,15.0,17.2,31,0.00,,,0.00,WUHU216HW,2013-01-29 23:32:00,
2013-01-29 16:37:00,50.0,20.5,30.04,NW,315,10.3,17.4,31,0.00,,,0.00,WUHU216HW,2013-01-29 23:37:00,
2013-01-29 16:42:00,49.9,21.1,30.04,WNW,293,15.7,18.3,32,0.00,,,0.00,WUHU216HW,2013-01-29 23:42:00,
2013-01-29 16:47:00,49.7,20.2,30.05,WNW,293,11.9,18.3,31,0.00,,,0.00,WUHU216HW,2013-01-29 23:47:00,
2013-01-29 16:52:00,49.5,20.7,30.04,NNW,338,11.4,16.6,32,0.00,,,0.00,WUHU216HW,2013-01-29 23:52:00,
2013-01-29 16:57:00,49.3,20.6,30.04,WNW,293,10.5,16.6,32,0.00,,,0.00,WUHU216HW,2013-01-29 23:57:00,
2013-01-29 17:02:00,49.3,20.6,30.03,NW,315,9.2,11.6,32,0.00,,,0.00,WUHU216HW,2013-01-30 00:02:00,
2013-01-29 17:07:00,49.5,21.4,30.04,WNW,293,17.0,17.0,33,0.00,,,0.00,WUHU216HW,2013-01-30 00:07:00,
2013-01-29 17:12:00,49.3,21.2,30.04,WNW,293,11.6,17.0,33,0.00,,,0.00,WUHU216HW,2013-01-30 00:12:00,
2013-01-29 17:17:00,48.8,20.8,30.04,NW,315,12.8,16.8,33,0.00,,,0.00,WUHU216HW,2013-01-30 00:17:00,
2013-01-29 17:22:00,48.4,21.2,30.03,WNW,293,8.7,16.8,34,0.00,,,0.00,WUHU216HW,2013-01-30 00:22:00,
2013-01-29 17:27:00,48.1,20.9,30.04,NNW,338,13.4,17.2,34,0.00,,,0.00,WUHU216HW,2013-01-30 00:27:00,
2013-01-29 17:32:00,47.7,21.3,30.04,NW,315,8.3,17.2,35,0.00,,,0.00,WUHU216HW,2013-01-30 00:32:00,
2013-01-29 17:37:00,47.3,21.5,30.04,NW,315,6.0,14.1,36,0.00,,,0.00,WUHU216HW,2013-01-30 00:37:00,
2013-01-29 17:42:00,47.2,22.1,30.04,NNW,338,8.9,14.1,37,0.00,,,0.00,WUHU216HW,2013-01-30 00:42:00,
2013-01-29 17:47:00,46.8,21.1,30.05,NNW,338,7.4,11.2,36,0.00,,,0.00,WUHU216HW,2013-01-30 00:47:00,
2013-01-29 17:52:00,46.6,20.9,30.05,NNW,338,7.4,14.1,36,0.00,,,0.00,WUHU216HW,2013-01-30 00:52:00,
2013-01-29 17:57:00,46.4,21.4,30.05,NW,315,10.5,14.1,37,0.00,,,0.00,WUHU216HW,2013-01-30 00:57:00,
2013-01-29 18:02:00,46.3,21.2,30.05,West,270,9.6,12.8,37,0.00,,,0.00,WUHU216HW,2013-01-30 01:02:00,
2013-01-29 18:07:00,46.1,21.8,30.05,NW,315,9.6,12.8,38,0.00,,,0.00,WUHU216HW,2013-01-30 01:07:00,
2013-01-29 18:12:00,46.1,21.8,30.05,NNW,338,12.3,12.3,38,0.00,,,0.00,WUHU216HW,2013-01-30 01:12:00,
2013-01-29 18:17:00,45.9,21.6,30.05,North,0,8.5,14.1,38,0.00,,,0.00,WUHU216HW,2013-01-30 01:17:00,
2013-01-29 18:22:00,45.9,21.6,30.06,WNW,293,8.1,14.1,38,0.00,,,0.00,WUHU216HW,2013-01-30 01:22:00,
2013-01-29 18:27:00,45.7,21.4,30.06,NNW,338,6.9,12.8,38,0.00,,,0.00,WUHU216HW,2013-01-30 01:27:00,
2013-01-29 18:32:00,45.7,22.1,30.06,North,0,4.7,12.8,39,0.00,,,0.00,WUHU216HW,2013-01-30 01:32:00,
2013-01-29 18:37:00,45.5,22.0,30.05,NNW,338,6.3,8.5,39,0.00,,,0.00,WUHU216HW,2013-01-30 01:37:00,
2013-01-29 18:42:00,45.4,21.8,30.06,WNW,293,4.7,10.7,39,0.00,,,0.00,WUHU216HW,2013-01-30 01:42:00,
2013-01-29 18:47:00,45.4,21.8,30.06,NNW,338,6.3,10.7,39,0.00,,,0.00,WUHU216HW,2013-01-30 01:47:00,
2013-01-29 18:52:00,45.4,21.8,30.06,NNW,338,6.3,10.1,39,0.00,,,0.00,WUHU216HW,2013-01-30 01:52:00,
2013-01-29 18:57:00,45.2,22.2,30.06,North,0,5.8,9.2,40,0.00,,,0.00,WUHU216HW,2013-01-30 01:57:00,
2013-01-29 19:02:00,45.0,22.2,30.06,NNW,338,11.2,11.2,40,0.00,,,0.00,WUHU216HW,2013-01-30 02:02:00,
2013-01-29 19:07:00,45.2,22.2,30.06,NNW,338,7.2,11.4,40,0.00,,,0.00,WUHU216HW,2013-01-30 02:07:00,
2013-01-29 19:12:00,45.2,22.2,30.07,NNE,23,7.6,12.8,40,0.00,,,0.00,WUHU216HW,2013-01-30 02:12:00,
2013-01-29 19:17:00,45.2,22.2,30.07,WNW,293,6.9,12.8,40,0.00,,,0.00,WUHU216HW,2013-01-30 02:17:00,
2013-01-29 19:22:00,45.2,22.2,30.08,NNW,338,6.7,10.7,40,0.00,,,0.00,WUHU216HW,2013-01-30 02:22:00,
2013-01-29 19:27:00,45.2,22.2,30.08,NNW,338,7.8,13.2,40,0.00,,,0.00,WUHU216HW,2013-01-30 02:27:00,
2013-01-29 19:32:00,45.2,22.2,30.08,WNW,293,7.6,13.2,40,0.00,,,0.00,WUHU216HW,2013-01-30 02:32:00,
2013-01-29 19:37:00,45.0,22.2,30.09,NNW,338,4.9,8.5,40,0.00,,,0.00,WUHU216HW,2013-01-30 02:37:00,
2013-01-29 19:42:00,45.0,22.2,30.09,West,270,6.3,11.4,40,0.00,,,0.00,WUHU216HW,2013-01-30 02:42:00,
2013-01-29 19:47:00,45.2,22.2,30.10,NNW,338,7.8,11.9,40,0.00,,,0.00,WUHU216HW,2013-01-30 02:47:00,
2013-01-29 19:52:00,45.2,22.2,30.09,West,270,7.8,11.9,40,0.00,,,0.00,WUHU216HW,2013-01-30 02:52:00,
2013-01-29 19:57:00,45.0,22.7,30.09,NW,315,6.9,13.6,41,0.00,,,0.00,WUHU216HW,2013-01-30 02:57:00,
2013-01-29 20:02:00,45.0,22.7,30.10,NNW,338,6.9,13.6,41,0.00,,,0.00,WUHU216HW,2013-01-30 03:02:00,
2013-01-29 20:07:00,45.0,22.7,30.10,WNW,293,6.7,12.3,41,0.00,,,0.00,WUHU216HW,2013-01-30 03:07:00,
2013-01-29 20:12:00,45.0,22.7,30.10,NNW,338,8.5,10.7,41,0.00,,,0.00,WUHU216HW,2013-01-30 03:12:00,
2013-01-29 20:17:00,45.0,22.7,30.10,NW,315,6.3,12.1,41,0.00,,,0.00,WUHU216HW,2013-01-30 03:17:00,
2013-01-29 20:22:00,45.0,22.7,30.10,NNW,338,6.9,12.1,41,0.00,,,0.00,WUHU216HW,2013-01-30 03:22:00,
2013-01-29 20:27:00,45.0,23.2,30.10,North,0,6.0,11.2,42,0.00,,,0.00,WUHU216HW,2013-01-30 03:27:00,
2013-01-29 20:32:00,44.8,23.1,30.10,WNW,293,6.0,8.5,42,0.00,,,0.00,WUHU216HW,2013-01-30 03:32:00,
2013-01-29 20:37:00,44.6,22.9,30.10,WNW,293,9.2,10.7,42,0.00,,,0.00,WUHU216HW,2013-01-30 03:37:00,
2013-01-29 20:42:00,44.8,23.1,30.10,NW,315,6.3,10.7,42,0.00,,,0.00,WUHU216HW,2013-01-30 03:42:00,
2013-01-29 20:47:00,44.6,22.9,30.10,North,0,7.8,9.6,42,0.00,,,0.00,WUHU216HW,2013-01-30 03:47:00,
2013-01-29 20:52:00,44.8,23.1,30.10,North,0,2.2,12.8,42,0.00,,,0.00,WUHU216HW,2013-01-30 03:52:00,
2013-01-29 20:57:00,44.6,22.9,30.11,NW,315,4.5,12.8,42,0.00,,,0.00,WUHU216HW,2013-01-30 03:57:00,
2013-01-29 21:02:00,44.5,22.7,30.10,NW,315,9.4,10.1,42,0.00,,,0.00,WUHU216HW,2013-01-30 04:02:00,
2013-01-29 21:07:00,44.5,22.7,30.10,WNW,293,4.3,10.1,42,0.00,,,0.00,WUHU216HW,2013-01-30 04:07:00,
2013-01-29 21:12:00,44.3,23.0,30.11,WNW,293,3.1,9.4,43,0.00,,,0.00,WUHU216HW,2013-01-30 04:12:00,
2013-01-29 21:17:00,44.3,23.0,30.11,North,0,5.8,6.7,43,0.00,,,0.00,WUHU216HW,2013-01-30 04:17:00,
2013-01-29 21:22:00,44.3,23.0,30.11,NNW,338,3.4,9.2,43,0.00,,,0.00,WUHU216HW,2013-01-30 04:22:00,
2013-01-29 21:27:00,44.1,23.0,30.11,NNW,338,5.4,9.2,43,0.00,,,0.00,WUHU216HW,2013-01-30 04:27:00,
2013-01-29 21:32:00,44.1,23.0,30.11,NNW,338,6.3,7.6,43,0.00,,,0.00,WUHU216HW,2013-01-30 04:32:00,
2013-01-29 21:37:00,44.3,23.0,30.11,WNW,293,2.9,8.1,43,0.00,,,0.00,WUHU216HW,2013-01-30 04:37:00,
2013-01-29 21:42:00,44.3,23.0,30.11,North,0,6.3,8.7,43,0.00,,,0.00,WUHU216HW,2013-01-30 04:42:00,
2013-01-29 21:47:00,44.3,23.0,30.11,NW,315,7.4,9.2,43,0.00,,,0.00,WUHU216HW,2013-01-30 04:47:00,
2013-01-29 21:52:00,44.5,23.2,30.11,North,0,6.3,10.3,43,0.00,,,0.00,WUHU216HW,2013-01-30 04:52:00,
2013-01-29 21:57:00,44.5,23.2,30.11,NNW,338,5.8,10.3,43,0.00,,,0.00,WUHU216HW,2013-01-30 04:57:00,
2013-01-29 22:00:00,44.5,23.2,30.11,NW,315,5.6,10.3,43,0.00,,,0.00,WUHU216HW,2013-01-30 05:00:00,
2013-01-29 22:02:00,44.5,22.7,30.11,NNW,338,7.2,9.6,42,0.00,,,0.00,WUHU216HW,2013-01-30 05:02:00,
2013-01-29 22:03:00,44.6,22.9,30.11,NW,315,3.8,9.6,42,0.00,,,0.00,WUHU216HW,2013-01-30 05:03:00,
2013-01-29 22:08:00,44.5,23.2,30.11,NNW,338,3.8,9.6,43,0.00,,,0.00,WUHU216HW,2013-01-30 05:08:00,
2013-01-29 22:13:00,44.5,23.2,30.11,North,0,4.7,7.4,43,0.00,,,0.00,WUHU216HW,2013-01-30 05:13:00,
2013-01-29 22:18:00,44.3,23.0,30.11,NNW,338,1.6,7.4,43,0.00,,,0.00,WUHU216HW,2013-01-30 05:18:00,
2013-01-29 22:23:00,44.3,23.0,30.11,NW,315,4.3,6.9,43,0.00,,,0.00,WUHU216HW,2013-01-30 05:23:00,
2013-01-29 22:28:00,43.9,22.8,30.11,West,270,5.6,6.9,43,0.00,,,0.00,WUHU216HW,2013-01-30 05:28:00,
2013-01-29 22:33:00,43.9,22.8,30.11,NW,315,5.4,6.9,43,0.00,,,0.00,WUHU216HW,2013-01-30 05:33:00,
2013-01-29 22:38:00,44.1,23.0,30.12,NNW,338,6.3,9.2,43,0.00,,,0.00,WUHU216HW,2013-01-30 05:38:00,
2013-01-29 22:43:00,44.3,23.0,30.12,North,0,4.0,9.2,43,0.00,,,0.00,WUHU216HW,2013-01-30 05:43:00,
2013-01-29 22:48:00,44.3,23.0,30.12,NNW,338,5.4,8.1,43,0.00,,,0.00,WUHU216HW,2013-01-30 05:48:00,
2013-01-29 22:53:00,44.3,23.0,30.12,NNW,338,2.0,7.6,43,0.00,,,0.00,WUHU216HW,2013-01-30 05:53:00,
2013-01-29 22:58:00,44.3,23.0,30.12,NNW,338,4.0,7.6,43,0.00,,,0.00,WUHU216HW,2013-01-30 05:58:00,
2013-01-29 23:03:00,44.5,23.2,30.12,NNW,338,6.3,9.4,43,0.00,,,0.00,WUHU216HW,2013-01-30 06:03:00,
2013-01-29 23:08:00,44.3,23.0,30.13,NNW,338,3.8,9.4,43,0.00,,,0.00,WUHU216HW,2013-01-30 06:08:00,
2013-01-29 23:13:00,44.3,23.0,30.13,WNW,293,2.2,8.1,43,0.00,,,0.00,WUHU216HW,2013-01-30 06:13:00,
2013-01-29 23:18:00,44.3,23.0,30.13,NW,315,6.3,7.6,43,0.00,,,0.00,WUHU216HW,2013-01-30 06:18:00,
2013-01-29 23:23:00,44.1,23.0,30.13,NW,315,6.3,7.6,43,0.00,,,0.00,WUHU216HW,2013-01-30 06:23:00,
2013-01-29 23:28:00,43.9,23.3,30.14,NW,315,4.7,8.5,44,0.00,,,0.00,WUHU216HW,2013-01-30 06:28:00,
2013-01-29 23:33:00,43.9,23.3,30.14,NNW,338,3.1,8.5,44,0.00,,,0.00,WUHU216HW,2013-01-30 06:33:00,
2013-01-29 23:38:00,43.9,23.3,30.14,West,270,5.1,6.9,44,0.00,,,0.00,WUHU216HW,2013-01-30 06:38:00,
2013-01-29 23:43:00,44.1,23.5,30.14,NW,315,5.6,8.5,44,0.00,,,0.00,WUHU216HW,2013-01-30 06:43:00,
2013-01-29 23:48:00,44.3,23.6,30.15,NW,315,6.0,8.5,44,0.00,,,0.00,WUHU216HW,2013-01-30 06:48:00,
2013-01-29 23:53:00,44.3,23.6,30.14,WSW,248,4.5,7.2,44,0.00,,,0.00,WUHU216HW,2013-01-30 06:53:00,
2013-01-29 23:58:00,44.1,23.5,30.14,NNW,338,7.6,7.6,44,0.00,,,0.00,WUHU216HW,2013-01-30 06:58:00,